This is the latest recevied weather packets stored in our database for station/object KQ4UWH. If no packets are shown the sender has not sent any weather packets the latest 10 day(s).
| Time | Temp. | Humidity | Pressure | Rain* | Wind** | Luminosity | Snow |
|---|---|---|---|---|---|---|---|
| 1778086812 | 26.67° C | 64% | 1239.7 hPa | 0 mm | - | 276 W/m² | - |
| 1778086510 | 26.11° C | 65% | 1239.7 hPa | 0 mm | - | 794 W/m² | - |
| 1778086206 | 25.56° C | 67% | 1239.7 hPa | 0 mm | - | 738 W/m² | - |
| 1778085902 | 25° C | 70% | 1239.7 hPa | 0 mm | - | 745 W/m² | - |
| 1778085600 | 25° C | 70% | 1239.7 hPa | 0 mm | - | 493 W/m² | - |
| 1778085295 | 25° C | 69% | 1239.7 hPa | 0 mm | - | 222 W/m² | - |
| 1778084990 | 25° C | 69% | 1239.7 hPa | 0 mm | - | 320 W/m² | - |
| 1778084688 | 25° C | 68% | 1239.7 hPa | 0 mm | - | 288 W/m² | - |
| 1778084385 | 25.56° C | 66% | 1239.7 hPa | 0 mm | - | 443 W/m² | - |
| 1778084083 | 25° C | 68% | 1239.7 hPa | 0 mm | - | 326 W/m² | - |
| 1778083781 | 25° C | 69% | 1239.7 hPa | 0 mm | - | 244 W/m² | - |
| 1778083478 | 25° C | 68% | 1239.7 hPa | 0 mm | - | 544 W/m² | - |
| 1778083175 | 24.44° C | 70% | 1239.7 hPa | 0 mm | - | 316 W/m² | - |
| 1778082873 | 24.44° C | 71% | 1239.7 hPa | 0 mm | - | 483 W/m² | - |
| 1778081754 | 23.33° C | 73% | 1239.7 hPa | 0 mm | - | 572 W/m² | - |
| 1778081451 | 22.78° C | 74% | 1239.7 hPa | 0 mm | - | 305 W/m² | - |
| 1778081149 | 22.78° C | 75% | 1239.7 hPa | 0 mm | - | 247 W/m² | - |
| 1778080846 | 22.78° C | 76% | 1239.7 hPa | 0 mm | - | 224 W/m² | - |
| 1778080544 | 22.78° C | 76% | 1239.7 hPa | 0 mm | - | 214 W/m² | - |
| 1778080241 | 22.22° C | 77% | 1239.7 hPa | 0 mm | - | 151 W/m² | - |
| 1778079938 | 22.22° C | 78% | 1239.7 hPa | 0 mm | - | 237 W/m² | - |
| 1778079634 | 22.22° C | 77% | 1239.7 hPa | 0 mm | - | 208 W/m² | - |
| 1778079331 | 22.22° C | 78% | 1239.7 hPa | 0 mm | - | 211 W/m² | - |
| 1778079023 | 21.67° C | 80% | 1239.7 hPa | 0 mm | - | 228 W/m² | - |
| 1778078720 | 21.11° C | 80% | 1239.7 hPa | 0 mm | - | 204 W/m² | - |
* Rain latest hour (hover to see other rain measurements)
** Current wind speed in m/s (hover to see current wind gust speed)